Time;durP1;ratioP1;P1;durP2;ratioP2;P2;SDS_P1;SDS_P2;PMS_P1;PMS_P2;Temp;Humidity;BMP_temperature;BMP_pressure;BME280_temperature;BME280_humidity;BME280_pressure;Samples;Min_cycle;Max_cycle;Signal;HPM_P1;HPM_P2
2023/08/23 00:00:08;;;;;;;8.17;7.07;;;17.40;99.90;;;;;;5137497;27;20129;-77
2023/08/23 00:02:34;;;;;;;11.10;7.90;;;17.40;99.90;;;;;;5137100;27;20046;-77
2023/08/23 00:04:59;;;;;;;10.03;8.27;;;17.30;99.90;;;;;;5156466;27;20043;-77
2023/08/23 00:07:25;;;;;;;9.83;8.40;;;17.40;99.90;;;;;;5139305;27;20478;-77
2023/08/23 00:09:51;;;;;;;9.60;7.00;;;17.30;99.90;;;;;;5104665;27;20076;-77
2023/08/23 00:12:17;;;;;;;9.30;8.20;;;17.30;99.90;;;;;;5157479;27;20049;-77
2023/08/23 00:14:43;;;;;;;11.00;7.73;;;17.30;99.90;;;;;;5156782;27;20398;-78
2023/08/23 00:17:09;;;;;;;11.30;7.63;;;17.30;99.90;;;;;;5138557;27;20054;-78
2023/08/23 00:19:35;;;;;;;9.83;7.90;;;17.30;99.90;;;;;;5138579;27;20042;-78
2023/08/23 00:22:02;;;;;;;9.10;7.57;;;17.30;99.90;;;;;;5138366;27;20129;-78
2023/08/23 00:24:28;;;;;;;9.50;7.37;;;17.20;99.90;;;;;;5157105;27;20470;-77
2023/08/23 00:26:55;;;;;;;10.23;8.33;;;17.20;99.90;;;;;;5156391;27;20158;-77
2023/08/23 00:29:20;;;;;;;9.83;7.70;;;17.20;99.90;;;;;;5156765;27;20131;-77
2023/08/23 00:31:46;;;;;;;11.00;7.60;;;17.10;99.90;;;;;;5138260;27;20156;-77
2023/08/23 00:34:12;;;;;;;9.20;8.10;;;17.10;99.90;;;;;;5157138;27;20039;-77
2023/08/23 00:36:37;;;;;;;9.03;7.67;;;17.10;99.90;;;;;;5156652;27;20187;-77
2023/08/23 00:39:03;;;;;;;10.03;7.87;;;17.10;99.90;;;;;;5138082;27;20134;-77
2023/08/23 00:41:29;;;;;;;11.17;7.57;;;17.10;99.90;;;;;;5138389;27;20053;-77
2023/08/23 00:43:54;;;;;;;9.77;7.57;;;17.00;99.90;;;;;;5120884;27;20463;-77
2023/08/23 00:46:21;;;;;;;13.80;8.23;;;17.00;99.90;;;;;;5138307;27;20053;-77
2023/08/23 00:48:49;;;;;;;10.77;8.67;;;17.10;99.90;;;;;;5138235;27;20376;-78
2023/08/23 00:51:16;;;;;;;10.40;7.73;;;17.00;99.90;;;;;;5156412;27;20498;-78
2023/08/23 00:53:41;;;;;;;11.60;8.40;;;17.00;99.90;;;;;;5138157;27;20380;-78
2023/08/23 00:56:08;;;;;;;9.93;8.13;;;17.00;99.90;;;;;;5156642;27;20061;-78
2023/08/23 00:58:34;;;;;;;11.60;7.83;;;17.00;99.90;;;;;;5156757;27;20051;-77
2023/08/23 01:01:00;;;;;;;11.93;8.30;;;17.00;99.90;;;;;;5156495;27;20046;-77
2023/08/23 01:03:26;;;;;;;10.07;8.20;;;17.00;99.90;;;;;;5138260;27;20091;-77
2023/08/23 01:06:13;;;;;;;9.50;8.37;;;16.90;99.90;;;;;;5156248;27;20398;-77
2023/08/23 01:08:55;;;;;;;9.67;8.13;;;16.90;99.90;;;;;;5137366;27;20520;-77
2023/08/23 01:12:03;;;;;;;11.10;7.80;;;16.90;99.90;;;;;;5138374;27;20047;-77
2023/08/23 01:14:50;;;;;;;13.17;9.70;;;16.90;99.90;;;;;;5138104;27;20053;-77
2023/08/23 01:17:18;;;;;;;12.73;9.00;;;16.80;99.90;;;;;;5155974;27;20514;-77
2023/08/23 01:19:48;;;;;;;11.37;8.50;;;16.80;99.90;;;;;;5137676;27;20401;-78
2023/08/23 01:22:19;;;;;;;11.30;8.97;;;16.70;99.90;;;;;;5155948;27;20482;-77
2023/08/23 01:24:47;;;;;;;11.53;8.60;;;16.80;99.90;;;;;;5137523;27;20479;-77
2023/08/23 01:27:13;;;;;;;13.07;9.20;;;16.70;99.90;;;;;;5137755;27;20054;-77
2023/08/23 01:29:39;;;;;;;11.00;9.33;;;16.70;99.90;;;;;;5154600;27;20054;-78
2023/08/23 01:32:42;;;;;;;12.23;9.90;;;16.70;99.90;;;;;;5156168;27;20039;-78
2023/08/23 01:35:08;;;;;;;10.57;9.13;;;16.70;99.90;;;;;;5155780;27;20125;-77
2023/08/23 01:37:38;;;;;;;12.70;9.43;;;16.70;99.90;;;;;;5155749;27;20129;-77
2023/08/23 01:40:06;;;;;;;10.37;9.27;;;16.60;99.90;;;;;;5137179;27;20558;-77
2023/08/23 01:42:31;;;;;;;10.70;9.07;;;16.70;99.90;;;;;;5155614;27;20125;-77
2023/08/23 01:44:57;;;;;;;11.60;8.23;;;16.70;99.90;;;;;;5155798;27;20129;-77
2023/08/23 01:47:23;;;;;;;13.47;9.70;;;16.70;99.90;;;;;;5137462;27;20039;-77
2023/08/23 01:49:49;;;;;;;11.87;9.03;;;16.60;99.90;;;;;;5137099;27;20540;-77
2023/08/23 01:52:14;;;;;;;10.87;8.47;;;16.70;99.90;;;;;;5155529;27;20049;-77
2023/08/23 01:54:40;;;;;;;13.10;9.70;;;16.70;99.90;;;;;;5155440;27;20085;-79
2023/08/23 01:57:06;;;;;;;10.83;8.37;;;16.60;99.90;;;;;;5137258;27;20050;-77
2023/08/23 01:59:31;;;;;;;13.90;8.37;;;16.60;99.90;;;;;;5155544;27;20152;-77
2023/08/23 02:01:57;;;;;;;10.63;8.00;;;16.60;99.90;;;;;;5155151;27;20047;-78
2023/08/23 02:04:23;;;;;;;12.10;8.60;;;16.50;99.90;;;;;;5155308;27;20134;-78
2023/08/23 02:06:48;;;;;;;10.63;8.30;;;16.50;99.90;;;;;;5136727;27;20174;-77
2023/08/23 02:09:14;;;;;;;11.07;8.87;;;16.40;99.90;;;;;;5155493;27;20071;-78
2023/08/23 02:11:40;;;;;;;10.83;8.50;;;16.40;99.90;;;;;;5136659;27;20387;-77
2023/08/23 02:14:05;;;;;;;11.47;7.73;;;16.30;99.90;;;;;;5154904;27;20150;-77
2023/08/23 02:16:31;;;;;;;12.80;8.50;;;16.40;99.90;;;;;;5155249;27;20125;-77
2023/08/23 02:18:57;;;;;;;10.50;7.97;;;16.40;99.90;;;;;;5154796;27;20042;-77
2023/08/23 02:21:23;;;;;;;12.63;8.03;;;16.30;99.90;;;;;;5136610;27;20047;-77
2023/08/23 02:23:48;;;;;;;12.00;8.77;;;16.40;99.90;;;;;;5115391;27;20035;-78
2023/08/23 02:26:15;;;;;;;11.20;8.43;;;16.40;99.90;;;;;;5134197;27;20479;-78
2023/08/23 02:28:41;;;;;;;10.03;8.40;;;16.30;99.90;;;;;;5134177;27;20074;-77
2023/08/23 02:31:07;;;;;;;11.67;8.17;;;16.30;99.90;;;;;;5133916;27;20051;-77
2023/08/23 02:33:32;;;;;;;11.90;8.90;;;16.30;99.90;;;;;;5116193;27;20054;-77
2023/08/23 02:35:58;;;;;;;10.40;8.77;;;16.40;99.90;;;;;;5133855;27;20078;-77
2023/08/23 02:38:24;;;;;;;11.33;9.20;;;16.30;99.90;;;;;;5098789;28;20038;-77
2023/08/23 02:40:50;;;;;;;11.17;8.70;;;16.20;99.90;;;;;;5115509;28;20117;-78
2023/08/23 02:43:15;;;;;;;12.50;9.07;;;16.20;99.90;;;;;;5133931;27;20610;-77
2023/08/23 02:45:42;;;;;;;10.43;8.17;;;16.20;99.90;;;;;;5133969;28;20082;-77
2023/08/23 02:48:10;;;;;;;12.90;9.07;;;16.20;99.90;;;;;;5115471;28;20079;-77
2023/08/23 02:50:36;;;;;;;12.13;9.80;;;16.20;99.90;;;;;;5133918;28;20483;-77
2023/08/23 02:53:02;;;;;;;12.30;9.50;;;16.30;99.90;;;;;;5133675;28;20035;-78
2023/08/23 02:55:28;;;;;;;11.73;9.27;;;16.30;99.90;;;;;;5134079;28;20047;-77
2023/08/23 02:57:53;;;;;;;11.10;9.00;;;16.30;99.90;;;;;;5098321;28;20051;-77
2023/08/23 03:00:19;;;;;;;9.90;8.27;;;16.30;99.90;;;;;;5115984;28;20536;-77
2023/08/23 03:02:45;;;;;;;9.57;8.10;;;16.40;99.90;;;;;;5133752;28;20070;-77
2023/08/23 03:05:11;;;;;;;11.83;9.03;;;16.40;99.90;;;;;;5133620;28;20386;-77
2023/08/23 03:07:36;;;;;;;9.53;8.30;;;16.40;99.90;;;;;;5115503;28;20148;-77
2023/08/23 03:10:02;;;;;;;9.77;7.73;;;16.40;99.90;;;;;;5133162;28;20051;-77
2023/08/23 03:12:28;;;;;;;9.70;7.97;;;16.40;99.90;;;;;;5115393;28;20055;-77
2023/08/23 03:14:53;;;;;;;10.27;8.60;;;16.40;99.90;;;;;;5098505;28;20043;-77
2023/08/23 03:17:19;;;;;;;12.10;8.37;;;16.30;99.90;;;;;;5133596;28;20491;-77
2023/08/23 03:19:45;;;;;;;9.90;8.13;;;16.40;99.90;;;;;;5115309;28;20047;-77
2023/08/23 03:22:10;;;;;;;11.07;8.53;;;16.40;99.90;;;;;;5133418;28;20047;-77
2023/08/23 03:24:36;;;;;;;12.60;8.60;;;16.40;99.90;;;;;;5133756;28;20550;-77
2023/08/23 03:27:02;;;;;;;11.70;9.23;;;16.40;99.90;;;;;;5098344;28;20062;-77
2023/08/23 03:29:28;;;;;;;12.97;8.97;;;16.40;99.90;;;;;;5133580;28;20428;-78
2023/08/23 03:31:53;;;;;;;9.80;8.80;;;16.40;99.90;;;;;;5133508;28;20058;-78
2023/08/23 03:34:19;;;;;;;11.20;9.27;;;16.50;99.90;;;;;;5133749;28;20046;-78
2023/08/23 03:36:45;;;;;;;12.33;9.37;;;16.50;99.90;;;;;;5115444;28;20100;-77
2023/08/23 03:39:10;;;;;;;11.43;8.53;;;16.50;99.90;;;;;;5114949;28;20111;-77
2023/08/23 03:41:36;;;;;;;12.67;9.57;;;16.50;99.90;;;;;;5133746;28;20074;-77
2023/08/23 03:44:02;;;;;;;11.10;9.53;;;16.50;99.90;;;;;;5114809;28;20043;-78
2023/08/23 03:46:28;;;;;;;14.73;10.73;;;16.60;99.90;;;;;;5133441;28;20054;-77
2023/08/23 03:48:54;;;;;;;12.63;10.73;;;16.50;99.90;;;;;;5115134;28;20039;-78
2023/08/23 03:51:19;;;;;;;12.60;11.30;;;16.50;99.90;;;;;;5133382;27;20386;-78
2023/08/23 03:53:45;;;;;;;12.17;10.33;;;16.50;99.90;;;;;;5136482;27;20046;-77
2023/08/23 03:56:11;;;;;;;14.00;10.87;;;16.50;99.90;;;;;;5136791;27;20043;-76
2023/08/23 03:58:36;;;;;;;14.87;11.47;;;16.50;99.90;;;;;;5118794;27;20090;-77
2023/08/23 04:01:02;;;;;;;16.27;12.20;;;16.60;99.90;;;;;;5136795;27;20086;-77
2023/08/23 04:03:28;;;;;;;17.20;13.17;;;16.60;99.90;;;;;;5137113;27;20050;-77
2023/08/23 04:05:53;;;;;;;15.73;12.57;;;16.60;99.90;;;;;;5136934;27;20130;-77
2023/08/23 04:08:19;;;;;;;16.03;12.23;;;16.60;99.90;;;;;;5136631;27;20047;-77
2023/08/23 04:10:51;;;;;;;15.90;12.60;;;16.60;99.90;;;;;;5118660;27;20040;-77
2023/08/23 04:13:17;;;;;;;16.00;12.87;;;16.70;99.90;;;;;;5118434;27;20150;-77
2023/08/23 04:15:44;;;;;;;16.53;13.80;;;16.60;99.90;;;;;;5118751;27;20394;-77
2023/08/23 04:18:10;;;;;;;17.63;13.77;;;16.60;99.90;;;;;;5118349;27;20399;-78
2023/08/23 04:20:36;;;;;;;17.70;13.97;;;16.70;99.90;;;;;;5118556;27;20047;-77
2023/08/23 04:23:02;;;;;;;18.57;14.40;;;16.70;99.90;;;;;;5118030;27;20047;-77
2023/08/23 04:25:28;;;;;;;19.70;14.40;;;16.70;99.90;;;;;;5136481;27;20050;-77
2023/08/23 04:27:54;;;;;;;16.67;13.30;;;16.60;99.90;;;;;;5118334;27;20043;-77
2023/08/23 04:30:19;;;;;;;17.80;13.57;;;16.60;99.90;;;;;;5117870;27;20421;-77
2023/08/23 04:32:45;;;;;;;19.80;15.30;;;16.70;99.90;;;;;;5136398;27;20050;-77
2023/08/23 04:35:11;;;;;;;17.40;14.47;;;16.70;99.90;;;;;;5136043;27;20043;-77
2023/08/23 04:37:37;;;;;;;16.43;13.43;;;16.70;99.90;;;;;;5118303;27;20082;-77
2023/08/23 04:40:06;;;;;;;18.43;16.43;;;16.70;99.90;;;;;;5117630;27;20070;-78
2023/08/23 04:42:33;;;;;;;20.27;15.90;;;16.70;99.90;;;;;;5118221;27;20051;-77
2023/08/23 04:45:00;;;;;;;18.83;15.30;;;16.70;99.90;;;;;;5117975;27;20231;-78
2023/08/23 04:47:27;;;;;;;15.73;14.00;;;16.70;99.90;;;;;;5136181;27;20051;-77
2023/08/23 04:49:53;;;;;;;24.23;15.83;;;16.70;99.90;;;;;;5136090;27;20043;-77
2023/08/23 04:52:19;;;;;;;19.10;17.07;;;16.80;99.90;;;;;;5117725;27;20054;-77
2023/08/23 04:54:44;;;;;;;18.57;15.13;;;16.80;99.90;;;;;;5136238;27;20039;-77
2023/08/23 04:57:10;;;;;;;17.93;15.07;;;16.80;99.90;;;;;;5135760;27;20059;-77
2023/08/23 04:59:36;;;;;;;17.33;15.43;;;16.80;99.90;;;;;;5135903;27;20047;-77
2023/08/23 05:02:01;;;;;;;19.70;15.73;;;16.80;99.90;;;;;;5135748;27;20042;-79
2023/08/23 05:04:27;;;;;;;18.40;16.17;;;16.80;99.90;;;;;;5135595;27;20487;-77
2023/08/23 05:06:53;;;;;;;18.13;14.90;;;16.80;99.90;;;;;;5135770;27;20049;-77
2023/08/23 05:09:18;;;;;;;17.53;14.80;;;16.80;99.90;;;;;;5135384;27;20039;-78
2023/08/23 05:11:44;;;;;;;18.17;15.60;;;16.80;99.90;;;;;;5117162;27;20075;-78
2023/08/23 05:14:10;;;;;;;18.67;15.33;;;16.70;99.90;;;;;;5135355;27;20058;-78
2023/08/23 05:16:36;;;;;;;18.60;14.83;;;16.80;99.90;;;;;;5135184;27;20402;-78
2023/08/23 05:19:01;;;;;;;17.30;15.17;;;16.70;99.90;;;;;;5135123;27;20125;-78
2023/08/23 05:21:27;;;;;;;19.20;15.60;;;16.80;99.90;;;;;;5116941;27;20046;-77
2023/08/23 05:23:53;;;;;;;18.07;15.50;;;16.80;99.90;;;;;;5116981;27;20047;-77
2023/08/23 05:26:19;;;;;;;16.40;14.70;;;16.80;99.90;;;;;;5099730;27;20043;-77
2023/08/23 05:28:44;;;;;;;17.93;14.77;;;16.80;99.90;;;;;;5117092;27;20047;-77
2023/08/23 05:31:10;;;;;;;18.10;16.17;;;16.80;99.90;;;;;;5134980;27;20050;-77
2023/08/23 05:33:37;;;;;;;18.27;16.37;;;16.70;99.90;;;;;;5135162;27;20088;-77
2023/08/23 05:36:03;;;;;;;21.20;16.43;;;16.80;99.90;;;;;;5117115;27;20083;-77
2023/08/23 05:38:29;;;;;;;18.83;16.17;;;16.80;99.90;;;;;;5116604;27;20134;-77
2023/08/23 05:40:55;;;;;;;20.37;16.57;;;16.80;99.90;;;;;;5135082;27;20043;-77
2023/08/23 05:43:21;;;;;;;19.30;16.37;;;16.80;99.90;;;;;;5116463;27;20054;-77
2023/08/23 05:45:47;;;;;;;20.90;16.13;;;16.90;99.90;;;;;;5134961;27;20478;-77
2023/08/23 05:48:13;;;;;;;18.37;16.37;;;17.00;99.90;;;;;;5134748;27;20100;-77
2023/08/23 05:50:39;;;;;;;18.63;16.67;;;17.00;99.90;;;;;;5099752;27;20554;-77
2023/08/23 05:53:09;;;;;;;18.93;16.17;;;17.10;99.90;;;;;;5134798;27;20135;-77
2023/08/23 05:55:36;;;;;;;18.10;15.97;;;17.20;99.90;;;;;;5135131;27;20047;-77
2023/08/23 05:58:02;;;;;;;17.70;15.50;;;17.30;99.90;;;;;;5134752;27;20059;-77
2023/08/23 06:00:27;;;;;;;18.17;15.97;;;17.40;99.90;;;;;;5134834;27;20877;-77
2023/08/23 06:02:53;;;;;;;17.33;15.33;;;17.70;99.90;;;;;;5134396;27;20035;-78
2023/08/23 06:05:19;;;;;;;21.00;14.40;;;18.70;99.90;;;;;;5134348;27;20076;-78
2023/08/23 06:07:45;;;;;;;18.77;14.60;;;19.90;99.90;;;;;;5134226;27;20046;-78
2023/08/23 06:10:11;;;;;;;21.33;13.80;;;20.90;99.90;;;;;;5116304;27;20104;-79
2023/08/23 06:12:37;;;;;;;15.90;12.20;;;21.80;99.90;;;;;;5116283;27;20043;-78
2023/08/23 06:15:04;;;;;;;16.73;12.07;;;22.70;99.90;;;;;;5115645;27;20042;-78
2023/08/23 06:17:30;;;;;;;15.03;10.23;;;23.60;99.90;;;;;;5099416;27;20474;-78
2023/08/23 06:19:56;;;;;;;14.07;10.73;;;24.30;99.90;;;;;;5134340;27;20047;-78
2023/08/23 06:22:22;;;;;;;10.70;9.60;;;24.90;99.90;;;;;;5134001;27;20043;-78
2023/08/23 06:24:48;;;;;;;11.93;10.10;;;25.40;99.90;;;;;;5134254;27;20487;-78
2023/08/23 06:27:13;;;;;;;10.83;8.93;;;25.50;99.90;;;;;;5115790;27;20143;-79
2023/08/23 06:29:40;;;;;;;10.97;9.37;;;25.70;99.90;;;;;;5134253;27;20089;-78
2023/08/23 06:32:07;;;;;;;12.50;9.57;;;25.70;99.90;;;;;;5134180;27;20046;-78
2023/08/23 06:34:33;;;;;;;9.97;8.53;;;25.80;99.90;;;;;;5133919;27;20519;-78
2023/08/23 06:36:59;;;;;;;11.97;9.20;;;25.70;99.90;;;;;;5116053;28;20100;-78
2023/08/23 06:39:25;;;;;;;13.17;10.23;;;25.10;99.90;;;;;;5133873;27;20043;-78
2023/08/23 06:41:50;;;;;;;19.53;10.70;;;25.00;99.90;;;;;;5134067;28;20042;-78
2023/08/23 06:44:16;;;;;;;15.60;10.03;;;25.30;99.90;;;;;;5115321;28;20072;-78
2023/08/23 06:46:42;;;;;;;13.10;8.97;;;26.20;99.90;;;;;;5116075;28;20043;-78
2023/08/23 06:49:08;;;;;;;12.27;9.03;;;27.00;99.90;;;;;;5115750;28;20483;-78
2023/08/23 06:51:33;;;;;;;10.77;9.23;;;27.60;99.90;;;;;;5133806;28;20047;-78
2023/08/23 06:53:59;;;;;;;11.07;9.40;;;27.70;99.90;;;;;;5115844;28;20051;-78
2023/08/23 06:56:26;;;;;;;11.30;9.30;;;27.80;99.90;;;;;;5115428;28;20536;-78
2023/08/23 06:58:52;;;;;;;9.23;8.33;;;27.70;99.90;;;;;;5133925;28;20051;-78
2023/08/23 07:01:18;;;;;;;10.20;8.90;;;27.10;99.90;;;;;;5133585;28;20047;-79
2023/08/23 07:03:44;;;;;;;10.53;9.00;;;26.40;99.90;;;;;;5115534;28;20390;-79
2023/08/23 07:06:13;;;;;;;10.13;9.03;;;25.80;99.90;;;;;;5133975;28;20055;-79
2023/08/23 07:08:40;;;;;;;11.57;9.60;;;25.30;99.90;;;;;;5133660;28;20047;-81
2023/08/23 07:11:05;;;;;;;10.70;8.83;;;24.80;99.90;;;;;;5099048;28;20061;-80
2023/08/23 07:13:31;;;;;;;11.37;9.30;;;24.60;99.90;;;;;;5114924;28;20394;-81
2023/08/23 07:15:57;;;;;;;13.00;9.67;;;24.50;99.90;;;;;;5115550;28;20047;-80
2023/08/23 07:18:22;;;;;;;11.63;9.37;;;24.20;99.90;;;;;;5115219;28;20043;-81
2023/08/23 07:20:48;;;;;;;11.10;9.30;;;24.10;99.90;;;;;;5115567;28;20134;-80
2023/08/23 07:23:14;;;;;;;13.97;9.37;;;24.00;99.90;;;;;;5098544;28;20040;-80
2023/08/23 07:25:42;;;;;;;10.37;9.10;;;23.90;99.90;;;;;;5115142;28;20051;-80
2023/08/23 07:28:08;;;;;;;12.53;9.43;;;23.70;99.90;;;;;;5135871;27;20103;-80
2023/08/23 07:30:33;;;;;;;11.73;10.10;;;23.60;99.90;;;;;;5137374;27;20047;-80
2023/08/23 07:32:59;;;;;;;13.67;10.70;;;23.50;99.90;;;;;;5119516;27;20050;-80
2023/08/23 07:35:25;;;;;;;11.97;10.33;;;23.60;99.90;;;;;;5118961;27;20043;-80
2023/08/23 07:37:51;;;;;;;12.63;10.43;;;24.10;99.90;;;;;;5119163;27;20125;-80
2023/08/23 07:40:16;;;;;;;13.33;10.23;;;24.50;99.90;;;;;;5119384;27;20055;-81
2023/08/23 07:42:42;;;;;;;13.80;9.57;;;25.10;99.90;;;;;;5137057;27;20428;-80
2023/08/23 07:45:08;;;;;;;11.73;9.17;;;26.20;99.90;;;;;;5137270;27;20051;-80
2023/08/23 07:47:34;;;;;;;11.60;8.93;;;27.30;99.90;;;;;;5136982;27;20043;-80
2023/08/23 07:50:02;;;;;;;13.07;10.50;;;27.80;99.90;;;;;;5085143;27;20055;-80
2023/08/23 07:52:28;;;;;;;14.43;10.18;;;27.90;99.90;;;;;;5118819;27;20086;-81
2023/08/23 07:54:53;;;;;;;11.93;9.77;;;28.20;99.90;;;;;;5118804;27;20047;-78
2023/08/23 07:57:19;;;;;;;15.38;10.60;;;28.00;99.90;;;;;;5118443;27;20109;-79
2023/08/23 07:59:45;;;;;;;16.67;10.68;;;27.50;99.90;;;;;;5136497;27;20055;-81
2023/08/23 08:02:11;;;;;;;15.13;10.90;;;27.00;99.90;;;;;;5101800;27;20042;-83
2023/08/23 08:04:37;;;;;;;12.60;10.48;;;26.60;99.90;;;;;;5117942;27;20047;-82
2023/08/23 08:07:03;;;;;;;14.23;9.82;;;26.30;99.90;;;;;;5102123;27;20065;-80
2023/08/23 08:09:29;;;;;;;13.48;10.35;;;26.20;99.90;;;;;;5136732;27;20051;-80
2023/08/23 08:11:55;;;;;;;12.07;10.27;;;26.10;99.90;;;;;;5136993;27;20443;-82
2023/08/23 08:14:21;;;;;;;11.55;10.20;;;26.20;99.90;;;;;;5137017;27;20089;-79
2023/08/23 08:16:47;;;;;;;14.60;9.53;;;26.20;99.90;;;;;;5136629;27;20180;-86
2023/08/23 08:19:13;;;;;;;14.00;10.03;;;26.10;99.90;;;;;;5118752;27;20510;-82
2023/08/23 08:21:39;;;;;;;12.67;10.03;;;26.10;99.90;;;;;;5136435;27;20107;-80
2023/08/23 08:24:05;;;;;;;14.00;10.73;;;26.00;99.90;;;;;;5118383;27;20074;-81
2023/08/23 08:26:30;;;;;;;15.50;10.53;;;25.80;99.90;;;;;;5118000;27;20071;-82
2023/08/23 08:28:56;;;;;;;15.57;10.53;;;25.60;99.90;;;;;;5118885;27;20067;-81
2023/08/23 08:31:22;;;;;;;12.23;9.83;;;25.40;99.90;;;;;;5136733;27;20086;-86
2023/08/23 08:33:47;;;;;;;14.63;10.93;;;25.20;99.90;;;;;;5101099;27;20051;-86
2023/08/23 08:36:13;;;;;;;14.13;10.17;;;24.90;99.90;;;;;;5136722;27;20073;-87
2023/08/23 08:38:39;;;;;;;15.40;9.97;;;24.70;99.90;;;;;;5117792;27;20085;-84
2023/08/23 08:41:05;;;;;;;13.77;10.10;;;24.60;99.90;;;;;;5118363;27;20043;-85
2023/08/23 08:43:31;;;;;;;12.47;10.17;;;24.60;99.90;;;;;;5136078;27;20062;-85
2023/08/23 08:45:57;;;;;;;12.57;9.43;;;24.80;99.90;;;;;;5136545;27;20043;-81
2023/08/23 08:48:23;;;;;;;13.23;9.20;;;24.80;99.90;;;;;;5101214;27;20543;-85
2023/08/23 08:50:50;;;;;;;14.67;9.57;;;24.80;99.90;;;;;;5117767;27;20488;-85
2023/08/23 08:53:18;;;;;;;14.73;9.83;;;24.80;99.90;;;;;;5118645;27;20402;-74
2023/08/23 08:55:48;;;;;;;11.33;9.27;;;24.90;99.90;;;;;;5156086;27;20561;-75
2023/08/23 08:58:19;;;;;;;13.67;9.70;;;24.90;99.90;;;;;;5156405;27;20063;-75
2023/08/23 09:00:49;;;;;;;12.13;9.43;;;24.90;99.90;;;;;;5156341;27;20043;-75
2023/08/23 09:03:18;;;;;;;12.87;9.67;;;24.90;99.90;;;;;;5156591;27;20113;-73
2023/08/23 09:05:47;;;;;;;13.13;10.10;;;24.90;99.90;;;;;;5137722;27;20046;-75
2023/08/23 09:08:13;;;;;;;15.63;11.70;;;25.00;99.90;;;;;;5138150;27;20086;-74
2023/08/23 09:10:39;;;;;;;12.37;10.03;;;25.10;99.90;;;;;;5137674;27;20065;-74
2023/08/23 09:13:04;;;;;;;14.90;12.10;;;25.00;99.90;;;;;;5156523;27;20352;-73
2023/08/23 09:15:31;;;;;;;14.17;10.17;;;24.80;99.90;;;;;;5156017;27;20152;-73
2023/08/23 09:17:57;;;;;;;14.67;10.13;;;24.80;99.90;;;;;;5156284;27;20062;-73
2023/08/23 09:20:23;;;;;;;13.30;10.00;;;24.80;99.90;;;;;;5156157;27;20043;-73
2023/08/23 09:22:53;;;;;;;12.80;9.03;;;24.80;99.90;;;;;;5137475;27;20479;-74
2023/08/23 09:25:19;;;;;;;14.37;9.53;;;24.70;99.90;;;;;;5156140;27;20039;-72
2023/08/23 09:27:45;;;;;;;15.10;9.00;;;24.60;99.90;;;;;;5155749;27;20134;-74
2023/08/23 09:30:12;;;;;;;11.93;7.10;;;24.70;99.90;;;;;;5137735;27;20507;-74
2023/08/23 09:32:39;;;;;;;12.17;6.67;;;24.60;99.90;;;;;;5120207;27;20057;-82
2023/08/23 09:35:15;;;;;;;10.43;7.53;;;24.60;99.90;;;;;;5156231;27;20516;-72
2023/08/23 09:37:48;;;;;;;9.97;6.90;;;24.60;99.90;;;;;;5155871;27;20038;-83
2023/08/23 09:40:22;;;;;;;12.23;6.80;;;24.50;99.90;;;;;;5137420;27;20094;-81
2023/08/23 09:42:50;;;;;;;10.95;6.65;;;24.50;99.90;;;;;;5153932;27;20039;-82
2023/08/23 09:45:22;;;;;;;10.80;5.93;;;24.50;99.90;;;;;;5136391;27;20035;-82
2023/08/23 09:47:53;;;;;;;8.47;5.63;;;24.50;99.90;;;;;;5154888;27;20068;-82
2023/08/23 09:50:21;;;;;;;9.30;5.47;;;24.60;99.90;;;;;;5136987;27;20189;-81
2023/08/23 09:53:05;;;;;;;9.97;5.43;;;24.60;99.90;;;;;;5155626;27;20069;-82
2023/08/23 09:55:33;;;;;;;9.43;5.25;;;24.50;99.90;;;;;;5155844;27;20069;-82
2023/08/23 09:58:00;;;;;;;9.47;6.17;;;24.40;99.90;;;;;;5155393;27;20509;-82
2023/08/23 10:00:27;;;;;;;10.80;5.83;;;24.40;99.90;;;;;;5155728;27;20513;-82
2023/08/23 10:02:53;;;;;;;10.67;5.50;;;24.40;99.90;;;;;;5155293;27;20035;-82
2023/08/23 10:05:20;;;;;;;12.10;5.53;;;24.50;99.90;;;;;;5137207;27;20047;-82
2023/08/23 10:07:46;;;;;;;7.63;4.83;;;24.50;99.90;;;;;;5136964;27;20130;-82
2023/08/23 10:10:12;;;;;;;11.17;5.83;;;24.60;99.90;;;;;;5155505;27;20042;-81
2023/08/23 10:12:44;;;;;;;9.10;5.17;;;24.50;99.90;;;;;;5155266;27;20094;-82
2023/08/23 10:15:12;;;;;;;8.83;5.17;;;24.50;99.90;;;;;;5137250;27;20058;-81
2023/08/23 10:17:39;;;;;;;9.13;5.13;;;24.40;99.90;;;;;;5136507;27;20054;-82
2023/08/23 10:20:07;;;;;;;8.20;4.33;;;24.40;99.90;;;;;;5136368;27;20582;-81
2023/08/23 10:22:33;;;;;;;11.33;5.00;;;24.50;99.90;;;;;;5155051;27;20047;-81
2023/08/23 10:24:59;;;;;;;7.47;4.53;;;24.60;99.90;;;;;;5154399;27;20920;-81
2023/08/23 10:27:25;;;;;;;7.77;4.10;;;24.70;99.90;;;;;;5136544;27;20134;-77
2023/08/23 10:29:51;;;;;;;8.83;5.43;;;24.70;99.90;;;;;;5136373;27;20089;-78
2023/08/23 10:32:17;;;;;;;8.13;4.60;;;24.70;99.90;;;;;;5136427;27;20447;-74
2023/08/23 10:34:43;;;;;;;10.30;5.63;;;24.70;99.90;;;;;;5118969;27;20043;-74
2023/08/23 10:37:19;;;;;;;11.13;6.03;;;24.80;99.90;;;;;;5154862;27;20047;-77
2023/08/23 10:39:50;;;;;;;10.33;5.00;;;24.80;99.90;;;;;;5136181;27;20051;-82
2023/08/23 10:42:17;;;;;;;12.63;5.87;;;24.90;99.90;;;;;;5136480;27;20047;-78
2023/08/23 10:45:05;;;;;;;7.90;4.37;;;25.10;99.90;;;;;;5135713;27;20049;-79
2023/08/23 10:47:36;;;;;;;8.80;4.77;;;25.20;99.90;;;;;;5154875;27;20050;-78
2023/08/23 10:50:03;;;;;;;8.40;4.77;;;25.20;99.90;;;;;;5154444;27;20038;-78
2023/08/23 10:52:30;;;;;;;9.07;4.90;;;25.20;99.90;;;;;;5136426;27;20049;-78
2023/08/23 10:54:57;;;;;;;7.97;4.40;;;25.20;99.90;;;;;;5119039;27;20064;-78
2023/08/23 10:57:23;;;;;;;7.10;3.47;;;25.20;99.90;;;;;;5154498;27;20198;-77
2023/08/23 10:59:49;;;;;;;10.03;3.83;;;25.10;99.90;;;;;;5154359;27;20043;-78
2023/08/23 11:02:15;;;;;;;7.90;3.43;;;25.10;99.90;;;;;;5157221;27;20064;-78
2023/08/23 11:04:42;;;;;;;10.03;5.03;;;25.00;99.90;;;;;;5140271;27;20035;-78
2023/08/23 11:07:08;;;;;;;7.90;3.70;;;25.00;99.90;;;;;;5158520;27;20042;-75
2023/08/23 11:09:35;;;;;;;9.53;3.57;;;24.90;99.90;;;;;;5140392;27;20094;-73
2023/08/23 11:12:01;;;;;;;7.60;3.50;;;24.90;99.90;;;;;;5140044;27;20043;-77
2023/08/23 11:14:27;;;;;;;8.53;3.03;;;24.80;99.90;;;;;;5140389;27;20047;-74
2023/08/23 11:16:53;;;;;;;6.87;2.63;;;24.80;99.90;;;;;;5139297;27;20118;-75
2023/08/23 11:19:19;;;;;;;7.87;3.17;;;24.70;99.90;;;;;;5157411;27;20042;-71
2023/08/23 11:21:45;;;;;;;7.17;3.03;;;24.60;99.90;;;;;;5157189;27;20051;-77
2023/08/23 11:24:11;;;;;;;7.90;3.30;;;24.50;99.90;;;;;;5158391;27;20053;-79
2023/08/23 11:26:37;;;;;;;6.47;3.23;;;24.50;99.90;;;;;;5157987;27;20047;-83
2023/08/23 11:29:06;;;;;;;9.10;3.83;;;24.50;99.90;;;;;;5157968;27;20078;-78
2023/08/23 11:31:33;;;;;;;6.50;3.37;;;24.40;99.90;;;;;;5139203;27;20078;-81
2023/08/23 11:34:05;;;;;;;10.23;4.13;;;24.30;99.90;;;;;;5121842;27;20042;-81
2023/08/23 11:36:35;;;;;;;8.23;3.83;;;24.30;99.90;;;;;;5140296;27;20126;-81
2023/08/23 11:39:05;;;;;;;8.43;3.30;;;24.30;99.90;;;;;;5139432;27;20510;-80
2023/08/23 11:41:32;;;;;;;7.97;3.40;;;24.30;99.90;;;;;;5139709;27;20099;-79
2023/08/23 11:44:05;;;;;;;13.57;2.97;;;24.30;99.90;;;;;;5105266;27;20386;-75
2023/08/23 11:46:34;;;;;;;9.87;2.80;;;24.30;99.90;;;;;;5158022;27;20046;-75
2023/08/23 11:49:03;;;;;;;6.10;2.30;;;24.30;99.90;;;;;;5139367;27;20058;-75
2023/08/23 11:51:40;;;;;;;7.00;1.97;;;24.30;99.90;;;;;;5139728;27;20061;-77
2023/08/23 11:54:05;;;;;;;5.73;1.80;;;24.20;99.90;;;;;;5139358;27;20043;-78
2023/08/23 11:56:33;;;;;;;8.90;1.80;;;24.30;99.90;;;;;;5122201;27;20049;-79
2023/08/23 11:59:02;;;;;;;4.50;1.60;;;24.30;99.90;;;;;;5139355;27;20057;-77
2023/08/23 12:01:28;;;;;;;5.07;1.90;;;24.30;99.90;;;;;;5139776;27;20091;-75
2023/08/23 12:03:54;;;;;;;8.07;1.90;;;24.30;99.90;;;;;;5157436;27;20046;-77
2023/08/23 12:06:20;;;;;;;6.10;2.10;;;24.30;99.90;;;;;;5122682;27;20138;-76
2023/08/23 12:08:46;;;;;;;5.13;2.10;;;24.40;99.90;;;;;;5157614;27;20054;-77
2023/08/23 12:11:12;;;;;;;5.77;1.87;;;24.50;99.90;;;;;;5157256;27;20051;-77
2023/08/23 12:13:37;;;;;;;4.40;1.67;;;24.50;99.90;;;;;;5138109;27;20107;-76
2023/08/23 12:16:03;;;;;;;4.90;1.67;;;24.50;99.90;;;;;;5138741;27;20042;-76
2023/08/23 12:18:29;;;;;;;7.17;1.70;;;24.50;99.90;;;;;;5157483;27;20171;-76
2023/08/23 12:20:55;;;;;;;6.60;1.63;;;24.50;99.90;;;;;;5157151;27;20046;-77
2023/08/23 12:23:20;;;;;;;6.00;1.80;;;24.50;99.90;;;;;;5156742;27;20047;-78
2023/08/23 12:25:46;;;;;;;3.63;1.60;;;24.50;99.90;;;;;;5137999;27;20401;-71
2023/08/23 12:28:14;;;;;;;3.87;1.50;;;24.60;99.90;;;;;;5156092;27;20046;-72
2023/08/23 12:30:40;;;;;;;5.90;1.80;;;24.60;99.90;;;;;;5156369;27;20113;-78
2023/08/23 12:33:05;;;;;;;4.43;1.60;;;24.60;99.90;;;;;;5103543;27;20051;-76